createdAt,value
2022-11-12T00:01:11.872Z,103033.13
2022-11-12T00:06:33.597Z,103034.38
2022-11-12T00:11:55.294Z,103042.91
2022-11-12T00:17:16.962Z,103043.28
2022-11-12T00:22:39.014Z,103040.06
2022-11-12T00:28:05.540Z,103038.53
2022-11-12T00:33:27.167Z,103044.47
2022-11-12T00:38:48.785Z,103044.84
2022-11-12T00:44:10.426Z,103046.13
2022-11-12T00:49:32.597Z,103038.00
2022-11-12T00:54:54.216Z,103031.78
2022-11-12T01:00:18.405Z,103025.56
2022-11-12T01:05:40.046Z,103033.22
2022-11-12T01:11:11.787Z,103012.97
2022-11-12T01:16:38.770Z,103019.75
2022-11-12T01:22:00.465Z,103013.53
2022-11-12T01:27:22.173Z,103014.78
2022-11-12T01:32:43.837Z,103019.66
2022-11-12T01:38:05.483Z,103008.78
2022-11-12T01:43:27.156Z,103012.63
2022-11-12T01:48:53.664Z,103009.16
2022-11-12T01:54:18.726Z,103011.28
2022-11-12T01:59:43.910Z,103008.72
2022-11-12T02:05:09.002Z,103007.88
2022-11-12T02:10:30.763Z,103003.53
2022-11-12T02:15:56.218Z,103005.47
2022-11-12T02:21:22.831Z,103000.97
2022-11-12T02:26:48.464Z,102998.41
2022-11-12T02:32:09.985Z,102997.09
2022-11-12T02:37:31.708Z,102999.66
2022-11-12T02:42:53.360Z,103002.63
2022-11-12T02:48:19.032Z,102997.25
2022-11-12T02:53:41.069Z,102995.56
2022-11-12T02:59:02.756Z,102998.50
2022-11-12T03:04:24.394Z,102999.56
2022-11-12T03:09:46.038Z,102997.84
2022-11-12T03:15:08.067Z,103008.28
2022-11-12T03:20:30.340Z,103012.97
2022-11-12T03:25:52.189Z,103009.47
2022-11-12T03:31:13.899Z,102999.44
2022-11-12T03:36:35.768Z,102997.72
2022-11-12T03:41:57.463Z,103006.25
2022-11-12T03:47:19.328Z,102998.97
2022-11-12T03:52:52.200Z,102993.22
2022-11-12T03:58:13.856Z,102985.34
2022-11-12T04:03:35.559Z,102989.16
2022-11-12T04:08:57.221Z,102988.09
2022-11-12T04:14:18.898Z,102981.88
2022-11-12T04:19:58.839Z,102971.84
2022-11-12T04:25:38.810Z,102969.47
2022-11-12T04:31:00.437Z,102953.91
2022-11-12T04:36:22.082Z,102951.13
2022-11-12T04:42:02.153Z,102951.34
2022-11-12T04:47:23.923Z,102957.06
2022-11-12T04:52:45.530Z,102955.16
2022-11-12T04:58:07.270Z,102953.63
2022-11-12T05:03:28.947Z,102949.81
2022-11-12T05:08:50.650Z,102954.69
2022-11-12T05:14:12.802Z,102966.81
2022-11-12T05:19:35.278Z,102965.09
2022-11-12T05:24:56.914Z,102962.31
2022-11-12T05:30:18.596Z,102960.59
2022-11-12T05:35:40.238Z,102950.56
2022-11-12T05:41:01.898Z,102948.84
2022-11-12T05:46:23.581Z,102942.47
2022-11-12T05:51:45.356Z,102949.91
2022-11-12T05:57:06.998Z,102947.34
2022-11-12T06:02:28.685Z,102953.94
2022-11-12T06:07:50.530Z,102951.38
2022-11-12T06:13:12.265Z,102954.13
2022-11-12T06:18:34.030Z,102941.50
2022-11-12T06:23:58.616Z,102941.50
2022-11-12T06:29:20.314Z,102951.75
2022-11-12T06:34:41.976Z,102944.47
2022-11-12T06:40:04.029Z,102943.44
2022-11-12T06:45:26.066Z,102937.31
2022-11-12T06:50:47.758Z,102943.94
2022-11-12T06:56:09.539Z,102942.53
2022-11-12T07:01:31.305Z,102949.03
2022-11-12T07:06:53.015Z,102952.47
2022-11-12T07:12:14.679Z,102957.19
2022-11-12T07:17:36.582Z,102963.97
2022-11-12T07:23:00.837Z,102972.00
2022-11-12T07:28:22.481Z,102974.50
2022-11-12T07:33:45.505Z,102983.19
2022-11-12T07:39:07.233Z,102984.19
2022-11-12T07:44:29.125Z,102996.13
2022-11-12T07:49:50.740Z,103000.75
2022-11-12T07:55:12.372Z,103001.63
2022-11-12T08:00:35.054Z,103004.69
2022-11-12T08:05:56.746Z,102995.59
2022-11-12T08:11:18.465Z,103003.78
2022-11-12T08:16:40.123Z,103000.72
2022-11-12T08:22:01.756Z,103014.38
2022-11-12T08:27:23.728Z,103004.09
2022-11-12T08:32:45.378Z,103014.34
2022-11-12T08:38:09.429Z,103017.63
2022-11-12T08:43:31.094Z,103013.66
2022-11-12T08:48:52.828Z,103009.69
2022-11-12T08:54:14.511Z,103007.88
2022-11-12T08:59:36.225Z,103010.38
2022-11-12T09:04:57.847Z,103007.38
2022-11-12T09:10:19.729Z,103013.50
2022-11-12T09:15:41.589Z,103018.59
2022-11-12T09:21:08.947Z,103021.75
2022-11-12T09:26:30.606Z,103011.44
2022-11-12T09:31:52.269Z,103010.97
2022-11-12T09:37:14.045Z,103005.13
2022-11-12T09:42:37.127Z,103010.06
2022-11-12T09:48:06.812Z,103016.81
2022-11-12T09:53:28.450Z,103020.00
2022-11-12T09:58:51.276Z,103020.38
2022-11-12T10:04:51.620Z,103025.06
2022-11-12T10:10:22.545Z,103027.19
2022-11-12T10:16:11.701Z,103022.03
2022-11-12T10:21:45.203Z,103024.97
2022-11-12T10:27:20.296Z,103014.97
2022-11-12T10:32:46.480Z,103008.94
2022-11-12T10:38:17.431Z,103010.19
2022-11-12T10:43:53.864Z,103003.59
2022-11-12T10:49:16.047Z,102989.25
2022-11-12T10:54:38.227Z,102984.91
2022-11-12T11:00:19.069Z,102979.38
2022-11-12T11:05:54.518Z,102982.34
2022-11-12T11:11:28.818Z,102977.19
2022-11-12T11:17:08.562Z,102972.91
2022-11-12T11:22:44.568Z,102970.13
2022-11-12T11:28:29.585Z,102948.19
2022-11-12T11:34:12.763Z,102946.25
2022-11-12T11:39:55.654Z,102935.84
2022-11-12T11:45:40.951Z,102934.13
2022-11-12T11:51:08.508Z,102928.19
2022-11-12T11:56:36.880Z,102930.97
2022-11-12T12:02:19.597Z,102929.25
2022-11-12T12:07:51.066Z,102932.88
2022-11-12T12:13:20.472Z,102922.28
2022-11-12T12:18:55.007Z,102909.84
2022-11-12T12:24:24.306Z,102905.34
2022-11-12T12:29:51.616Z,102894.66
2022-11-12T12:35:40.556Z,102885.50
2022-11-12T12:41:28.286Z,102884.16
2022-11-12T12:46:56.532Z,102867.56
2022-11-12T12:52:18.185Z,102864.13
2022-11-12T12:57:40.814Z,102864.31
2022-11-12T13:03:02.586Z,102856.00
2022-11-12T13:08:26.385Z,102854.28
2022-11-12T13:13:48.327Z,102859.00
2022-11-12T13:19:09.989Z,102853.25
2022-11-12T13:25:08.834Z,102852.84
2022-11-12T13:30:30.499Z,102847.94
2022-11-12T13:35:52.240Z,102836.47
2022-11-12T13:41:43.320Z,102836.94
2022-11-12T13:47:05.057Z,102834.84
2022-11-12T13:52:28.810Z,102828.91
2022-11-12T13:57:52.427Z,102818.66
2022-11-12T14:03:18.474Z,102824.19
2022-11-12T14:09:13.279Z,102813.22
2022-11-12T14:14:46.610Z,102805.25
2022-11-12T14:20:47.429Z,102809.44
2022-11-12T14:26:11.517Z,102810.19
2022-11-12T14:31:33.261Z,102801.31
2022-11-12T14:36:56.234Z,102800.50
2022-11-12T14:42:17.882Z,102801.34
2022-11-12T14:47:39.567Z,102797.91
2022-11-12T14:53:25.741Z,102797.06
2022-11-12T14:58:47.583Z,102794.91
2022-11-12T15:04:11.948Z,102808.13
2022-11-12T15:09:38.634Z,102800.41
2022-11-12T15:15:29.556Z,102803.97
2022-11-12T15:21:15.743Z,102793.50
2022-11-12T15:26:40.153Z,102803.69
2022-11-12T15:32:03.141Z,102800.47
2022-11-12T15:37:27.733Z,102795.31
2022-11-12T15:42:49.491Z,102786.72
2022-11-12T15:48:12.869Z,102781.41
2022-11-12T15:53:34.537Z,102778.19
2022-11-12T15:58:56.181Z,102770.94
2022-11-12T16:04:18.406Z,102763.44
2022-11-12T16:09:40.121Z,102751.91
2022-11-12T16:15:02.199Z,102742.94
2022-11-12T16:20:27.009Z,102749.53
2022-11-12T16:25:48.824Z,102748.91
2022-11-12T16:31:10.546Z,102760.19
2022-11-12T16:36:32.312Z,102755.69
2022-11-12T16:41:53.949Z,102753.13
2022-11-12T16:47:15.612Z,102754.25
2022-11-12T16:52:37.255Z,102754.13
2022-11-12T16:57:58.920Z,102744.84
2022-11-12T17:03:20.531Z,102749.19
2022-11-12T17:08:42.519Z,102751.16
2022-11-12T17:14:06.001Z,102742.63
2022-11-12T17:19:27.648Z,102739.00
2022-11-12T17:24:49.338Z,102742.81
2022-11-12T17:30:12.137Z,102738.56
2022-11-12T17:35:34.766Z,102736.31
2022-11-12T17:40:57.917Z,102734.00
2022-11-12T17:46:22.440Z,102724.50
2022-11-12T17:51:44.116Z,102724.97
2022-11-12T17:57:05.784Z,102726.31
2022-11-12T18:02:27.444Z,102723.97
2022-11-12T18:07:49.214Z,102733.34
2022-11-12T18:13:11.336Z,102723.94
2022-11-12T18:18:33.003Z,102721.78
2022-11-12T18:23:54.737Z,102728.63
2022-11-12T18:29:16.436Z,102728.16
2022-11-12T18:34:41.941Z,102722.84
2022-11-12T18:40:04.696Z,102729.66
2022-11-12T18:45:26.385Z,102719.63
2022-11-12T18:50:48.062Z,102715.34
2022-11-12T18:56:18.005Z,102720.50
2022-11-12T19:01:39.792Z,102720.97
2022-11-12T19:07:01.960Z,102725.91
2022-11-12T19:12:23.878Z,102725.06
2022-11-12T19:17:45.586Z,102727.88
2022-11-12T19:23:07.375Z,102721.66
2022-11-12T19:28:29.701Z,102718.28
2022-11-12T19:33:51.873Z,102724.50
2022-11-12T19:39:13.550Z,102718.06
2022-11-12T19:44:35.285Z,102709.06
2022-11-12T19:49:57.263Z,102701.16
2022-11-12T19:55:18.905Z,102695.19
2022-11-12T20:00:40.608Z,102684.47
2022-11-12T20:06:04.685Z,102688.09
2022-11-12T20:11:26.346Z,102686.84
2022-11-12T20:16:49.519Z,102687.47
2022-11-12T20:22:11.189Z,102682.56
2022-11-12T20:27:32.883Z,102682.56
2022-11-12T20:32:54.515Z,102685.34
2022-11-12T20:38:16.544Z,102685.34
2022-11-12T20:43:38.199Z,102676.63
2022-11-12T20:49:00.255Z,102671.06
2022-11-12T20:54:22.047Z,102674.88
2022-11-12T20:59:43.742Z,102675.09
2022-11-12T21:05:05.552Z,102667.59
2022-11-12T21:10:27.754Z,102666.75
2022-11-12T21:15:49.495Z,102660.34
2022-11-12T21:21:13.603Z,102662.47
2022-11-12T21:26:35.717Z,102660.31
2022-11-12T21:31:57.427Z,102661.63
2022-11-12T21:37:20.181Z,102652.00
2022-11-12T21:42:45.096Z,102641.75
2022-11-12T21:48:06.815Z,102641.31
2022-11-12T21:53:28.468Z,102652.59
2022-11-12T21:58:51.008Z,102662.84
2022-11-12T22:04:17.946Z,102656.44
2022-11-12T22:09:40.064Z,102643.38
2022-11-12T22:15:01.775Z,102645.91
2022-11-12T22:20:23.472Z,102641.22
2022-11-12T22:25:45.114Z,102651.00
2022-11-12T22:31:09.880Z,102646.94
2022-11-12T22:36:31.975Z,102631.97
2022-11-12T22:41:53.610Z,102624.91
2022-11-12T22:47:15.295Z,102621.69
2022-11-12T22:52:36.949Z,102618.50
2022-11-12T22:57:59.931Z,102610.56
2022-11-12T23:03:21.580Z,102616.53
2022-11-12T23:14:04.846Z,102607.34
2022-11-12T23:19:26.685Z,102597.72
2022-11-12T23:24:48.337Z,102603.47
2022-11-12T23:30:10.449Z,102589.84
2022-11-12T23:35:32.188Z,102587.47
2022-11-12T23:40:56.748Z,102572.94
2022-11-12T23:46:18.851Z,102566.09
2022-11-12T23:51:40.516Z,102569.09
2022-11-12T23:57:02.163Z,102559.28
